Time;durP1;ratioP1;P1;durP2;ratioP2;P2;SDS_P1;SDS_P2;PMS_P1;PMS_P2;Temp;Humidity;BMP_temperature;BMP_pressure;BME280_temperature;BME280_humidity;BME280_pressure;Samples;Min_cycle;Max_cycle;Signal;HPM_P1;HPM_P2
2022/10/23 00:01:30;;;;;;;11.95;8.07;;;;;;;8.83;100.00;101453.34;5055143;28;20324;-76
2022/10/23 00:03:59;;;;;;;21.90;10.18;;;;;;;8.81;100.00;101443.81;5055399;28;20036;-76
2022/10/23 00:06:25;;;;;;;16.33;8.55;;;;;;;8.79;100.00;101449.25;5054945;28;20033;-78
2022/10/23 00:08:51;;;;;;;15.27;9.50;;;;;;;8.79;100.00;101443.94;5055298;28;20108;-75
2022/10/23 00:11:19;;;;;;;15.52;8.23;;;;;;;8.77;100.00;101443.19;5037201;28;20187;-75
2022/10/23 00:13:46;;;;;;;16.20;9.00;;;;;;;8.74;100.00;101431.97;5054280;28;20021;-76
2022/10/23 00:16:11;;;;;;;20.25;10.70;;;;;;;8.77;100.00;101439.69;5054715;28;20136;-75
2022/10/23 00:18:37;;;;;;;24.10;13.52;;;;;;;8.82;100.00;101440.19;5054495;28;20039;-76
2022/10/23 00:21:04;;;;;;;21.05;12.40;;;;;;;8.85;100.00;101439.97;5054654;28;20075;-75
2022/10/23 00:23:29;;;;;;;22.13;11.23;;;;;;;8.87;100.00;101442.50;5053060;28;20045;-76
2022/10/23 00:25:55;;;;;;;14.05;10.23;;;;;;;8.87;100.00;101438.06;5053619;28;20036;-76
2022/10/23 00:28:20;;;;;;;15.60;10.10;;;;;;;8.86;100.00;101438.16;5054488;28;20462;-76
2022/10/23 00:30:46;;;;;;;18.90;10.48;;;;;;;8.86;100.00;101446.97;5053908;28;20036;-76
2022/10/23 00:33:11;;;;;;;22.63;10.77;;;;;;;8.88;100.00;101447.69;5053469;28;20040;-76
2022/10/23 00:35:41;;;;;;;16.27;10.82;;;;;;;8.88;100.00;101442.38;5053077;28;20112;-76
2022/10/23 00:38:07;;;;;;;21.52;10.60;;;;;;;8.89;100.00;101448.56;5054236;28;20057;-76
2022/10/23 00:40:33;;;;;;;17.88;10.20;;;;;;;8.88;100.00;101438.91;5053787;28;20131;-75
2022/10/23 00:42:58;;;;;;;15.77;9.45;;;;;;;8.86;100.00;101435.53;5053202;28;20025;-75
2022/10/23 00:45:26;;;;;;;21.33;10.45;;;;;;;8.81;100.00;101438.50;5054498;28;20488;-75
2022/10/23 00:47:53;;;;;;;16.33;9.60;;;;;;;8.76;100.00;101430.91;5052240;28;20021;-75
2022/10/23 00:50:21;;;;;;;14.13;9.38;;;;;;;8.73;100.00;101424.94;5054015;28;20032;-76
2022/10/23 00:52:50;;;;;;;15.70;10.02;;;;;;;8.72;100.00;101428.56;5053874;28;20033;-76
2022/10/23 00:55:18;;;;;;;20.88;10.68;;;;;;;8.71;100.00;101433.03;5053948;28;20170;-76
2022/10/23 00:57:45;;;;;;;15.27;9.88;;;;;;;8.70;100.00;101431.31;5053732;28;20039;-76
2022/10/23 01:00:24;;;;;;;21.40;9.93;;;;;;;8.71;100.00;101427.72;5053972;28;20036;-76
2022/10/23 01:02:51;;;;;;;20.30;10.40;;;;;;;8.70;100.00;101426.00;5052557;28;20025;-76
2022/10/23 01:05:17;;;;;;;17.63;9.70;;;;;;;8.72;100.00;101425.91;5053791;28;20033;-76
2022/10/23 01:07:58;;;;;;;18.25;10.18;;;;;;;8.73;100.00;101424.94;5053195;28;20058;-76
2022/10/23 01:10:29;;;;;;;13.93;9.38;;;;;;;8.76;100.00;101419.41;5053686;28;20037;-76
2022/10/23 01:13:01;;;;;;;18.38;11.00;;;;;;;8.77;100.00;101419.31;5053498;28;20033;-76
2022/10/23 01:15:47;;;;;;;17.92;11.13;;;;;;;8.82;100.00;101419.81;5053945;28;20480;-76
2022/10/23 01:18:18;;;;;;;19.73;11.18;;;;;;;8.86;100.00;101427.56;5053555;28;20029;-76
2022/10/23 01:21:05;;;;;;;19.17;10.88;;;;;;;8.89;100.00;101419.38;5053022;28;20033;-77
2022/10/23 01:24:08;;;;;;;14.05;10.00;;;;;;;8.91;100.00;101410.34;5053462;28;20449;-76
2022/10/23 01:26:51;;;;;;;14.85;9.68;;;;;;;8.93;100.00;101411.06;5053546;28;20373;-76
2022/10/23 01:29:42;;;;;;;20.85;9.90;;;;;;;8.93;100.00;101411.06;5053543;28;20433;-76
2022/10/23 01:32:18;;;;;;;19.10;10.43;;;;;;;8.94;100.00;101414.56;5036427;28;20099;-75
2022/10/23 01:34:49;;;;;;;21.15;10.30;;;;;;;8.92;100.00;101401.41;5052886;28;20083;-76
2022/10/23 01:37:24;;;;;;;21.60;11.20;;;;;;;8.97;100.00;101411.66;5053262;28;20029;-76
2022/10/23 01:39:54;;;;;;;20.95;11.23;;;;;;;8.99;100.00;101404.44;5052717;28;20033;-76
2022/10/23 01:42:27;;;;;;;18.83;10.73;;;;;;;8.99;100.00;101396.50;5053111;28;20029;-76
2022/10/23 01:45:05;;;;;;;20.50;10.60;;;;;;;8.98;100.00;101385.00;5051502;28;20028;-76
2022/10/23 01:47:33;;;;;;;17.48;10.88;;;;;;;9.00;100.00;101387.53;5053476;28;20047;-76
2022/10/23 01:50:01;;;;;;;24.70;12.50;;;;;;;8.97;100.00;101382.47;5052860;28;20495;-75
2022/10/23 01:52:27;;;;;;;15.45;9.65;;;;;;;8.95;100.00;101374.63;5052965;28;20029;-75
2022/10/23 01:54:55;;;;;;;20.65;11.55;;;;;;;8.94;100.00;101375.59;5052568;28;20044;-75
2022/10/23 01:57:22;;;;;;;19.48;10.73;;;;;;;8.92;100.00;101379.31;5053195;28;20036;-76
2022/10/23 01:59:52;;;;;;;19.40;11.85;;;;;;;8.88;100.00;101378.69;5052310;28;20484;-76
2022/10/23 02:02:21;;;;;;;20.30;11.18;;;;;;;8.83;100.00;101381.69;5053013;28;20029;-75
2022/10/23 02:04:59;;;;;;;17.35;10.07;;;;;;;8.78;100.00;101378.56;5052157;28;20033;-75
2022/10/23 02:07:24;;;;;;;15.65;10.15;;;;;;;8.72;100.00;101381.66;5052521;28;20037;-75
2022/10/23 02:09:50;;;;;;;19.17;10.55;;;;;;;8.67;100.00;101373.19;5052271;28;20041;-75
2022/10/23 02:12:38;;;;;;;21.42;11.52;;;;;;;8.63;100.00;101369.09;5051341;28;20032;-75
2022/10/23 02:15:30;;;;;;;18.98;10.95;;;;;;;8.62;100.00;101367.38;5052719;28;20033;-75
2022/10/23 02:18:06;;;;;;;;;;;;;;;8.60;100.00;101369.31;5047084;28;20048;-75
2022/10/23 02:21:02;;;;;;;14.43;9.80;;;;;;;8.57;100.00;101359.78;5067788;28;19912;-75
2022/10/23 02:23:34;;;;;;;19.15;11.32;;;;;;;8.54;100.00;101360.00;5051839;28;20041;-75
2022/10/23 02:26:09;;;;;;;17.38;10.70;;;;;;;8.52;100.00;101355.75;5052196;28;20379;-76
2022/10/23 02:28:42;;;;;;;22.27;11.73;;;;;;;8.51;100.00;101354.06;5052332;28;20035;-76
2022/10/23 02:31:11;;;;;;;18.13;11.57;;;;;;;8.49;100.00;101354.16;5053014;28;20036;-76
2022/10/23 02:33:36;;;;;;;16.80;9.90;;;;;;;8.46;100.00;101349.09;5052731;28;20377;-76
2022/10/23 02:36:02;;;;;;;16.23;9.90;;;;;;;8.43;100.00;101350.16;5052094;28;20029;-76
2022/10/23 02:38:29;;;;;;;19.70;11.68;;;;;;;8.43;100.00;101354.59;5052195;28;20118;-76
2022/10/23 02:41:02;;;;;;;20.65;11.60;;;;;;;8.41;100.00;101349.41;5051980;28;20025;-76
2022/10/23 02:43:35;;;;;;;17.25;10.93;;;;;;;8.38;100.00;101339.03;5052282;28;20032;-76
2022/10/23 02:46:33;;;;;;;22.27;11.68;;;;;;;8.36;100.00;101338.28;5050030;28;20029;-76
2022/10/23 02:49:13;;;;;;;16.75;11.48;;;;;;;8.37;100.00;101331.19;5051522;28;20517;-76
2022/10/23 02:51:56;;;;;;;24.33;12.57;;;;;;;8.35;100.00;101322.50;5052167;28;20033;-76
2022/10/23 02:54:30;;;;;;;17.88;10.93;;;;;;;8.34;100.00;101316.34;5051934;28;20124;-76
2022/10/23 02:57:04;;;;;;;23.02;12.35;;;;;;;8.35;100.00;101315.38;5051967;28;20033;-76
2022/10/23 02:59:40;;;;;;;26.90;12.88;;;;;;;8.40;100.00;101310.56;5052039;28;20388;-76
2022/10/23 03:02:17;;;;;;;18.40;10.75;;;;;;;8.43;100.00;101305.06;5051788;28;20063;-74
2022/10/23 03:04:44;;;;;;;21.98;11.85;;;;;;;8.44;100.00;101303.28;5051844;28;20120;-74
2022/10/23 03:07:13;;;;;;;28.80;13.55;;;;;;;8.46;100.00;101294.25;5051393;28;20033;-74
2022/10/23 03:09:38;;;;;;;23.25;12.35;;;;;;;8.48;100.00;101294.16;5052385;28;20061;-74
2022/10/23 03:12:04;;;;;;;19.98;13.35;;;;;;;8.50;100.00;101286.91;5050414;28;20087;-76
2022/10/23 03:14:29;;;;;;;18.52;10.70;;;;;;;8.53;100.00;101286.69;5052188;28;20040;-74
2022/10/23 03:16:55;;;;;;;23.92;13.20;;;;;;;8.56;100.00;101289.09;5051547;28;20033;-74
2022/10/23 03:19:20;;;;;;;24.75;12.70;;;;;;;8.58;100.00;101287.19;5052032;28;20162;-74
2022/10/23 03:21:45;;;;;;;26.55;14.02;;;;;;;8.60;100.00;101284.44;5051842;28;20108;-74
2022/10/23 03:24:11;;;;;;;20.70;13.18;;;;;;;8.60;100.00;101279.97;5051491;28;20049;-74
2022/10/23 03:26:36;;;;;;;18.92;11.82;;;;;;;8.61;100.00;101272.84;5050765;28;20033;-74
2022/10/23 03:29:01;;;;;;;25.75;13.40;;;;;;;8.62;100.00;101277.19;5050990;28;20037;-77
2022/10/23 03:31:27;;;;;;;23.58;12.50;;;;;;;8.62;100.00;101279.84;5051667;28;20040;-74
2022/10/23 03:33:52;;;;;;;23.10;12.38;;;;;;;8.62;100.00;101277.19;5051509;28;20374;-75
2022/10/23 03:36:17;;;;;;;22.67;12.43;;;;;;;8.61;100.00;101275.50;5051682;28;20135;-75
2022/10/23 03:38:43;;;;;;;23.85;12.55;;;;;;;8.59;100.00;101267.66;5051581;28;20621;-75
2022/10/23 03:41:08;;;;;;;22.42;12.45;;;;;;;8.59;100.00;101267.66;5050800;28;20037;-74
2022/10/23 03:43:33;;;;;;;20.38;12.50;;;;;;;8.56;100.00;101253.78;5051558;28;20033;-74
2022/10/23 03:46:00;;;;;;;26.73;12.80;;;;;;;8.56;100.00;101251.13;5051097;28;20033;-75
2022/10/23 03:48:25;;;;;;;18.25;11.57;;;;;;;8.55;100.00;101244.13;5051335;28;20057;-74
2022/10/23 03:50:50;;;;;;;25.27;13.05;;;;;;;8.54;100.00;101245.94;5051353;28;20072;-74
2022/10/23 03:53:16;;;;;;;23.98;12.27;;;;;;;8.55;100.00;101244.13;5051408;28;20116;-74
2022/10/23 03:55:42;;;;;;;22.85;11.57;;;;;;;8.54;100.00;101231.81;5051414;28;20037;-74
2022/10/23 03:58:08;;;;;;;20.73;11.63;;;;;;;8.53;100.00;101232.81;5054266;28;20037;-74
2022/10/23 04:00:33;;;;;;;21.13;12.70;;;;;;;8.53;100.00;101233.63;5054910;28;20416;-74
2022/10/23 04:02:59;;;;;;;19.25;11.95;;;;;;;8.54;100.00;101229.16;5054688;28;20163;-74
2022/10/23 04:05:24;;;;;;;24.58;12.82;;;;;;;8.52;100.00;101217.84;5054846;28;20077;-74
2022/10/23 04:07:49;;;;;;;20.20;11.20;;;;;;;8.53;100.00;101220.38;5054611;28;20052;-74
2022/10/23 04:10:15;;;;;;;23.58;12.10;;;;;;;8.55;100.00;101233.53;5053460;28;20033;-74
2022/10/23 04:12:40;;;;;;;18.50;10.98;;;;;;;8.54;100.00;101216.78;5054807;28;20397;-74
2022/10/23 04:15:06;;;;;;;20.65;11.70;;;;;;;8.55;100.00;101214.94;5054321;28;20024;-75
2022/10/23 04:17:31;;;;;;;21.27;11.18;;;;;;;8.57;100.00;101216.53;5054719;28;20044;-75
2022/10/23 04:19:56;;;;;;;20.88;11.23;;;;;;;8.57;100.00;101208.59;5053818;28;20037;-75
2022/10/23 04:22:22;;;;;;;17.10;10.38;;;;;;;8.58;100.00;101206.75;5054572;28;20085;-75
2022/10/23 04:24:47;;;;;;;19.08;11.18;;;;;;;8.59;100.00;101203.16;5054645;28;20045;-75
2022/10/23 04:27:13;;;;;;;15.25;10.63;;;;;;;8.61;100.00;101201.22;5054144;28;20550;-75
2022/10/23 04:29:38;;;;;;;21.52;11.57;;;;;;;8.61;100.00;101196.78;5054481;28;20033;-75
2022/10/23 04:32:05;;;;;;;17.17;10.68;;;;;;;8.64;100.00;101193.03;5054029;28;20037;-75
2022/10/23 04:34:30;;;;;;;24.30;10.95;;;;;;;8.71;100.00;101201.38;5054683;28;20037;-75
2022/10/23 04:36:56;;;;;;;21.02;10.93;;;;;;;8.72;100.00;101197.72;5054233;28;20323;-77
2022/10/23 04:39:21;;;;;;;18.25;10.10;;;;;;;8.73;100.00;101194.13;5054314;28;20384;-75
2022/10/23 04:41:46;;;;;;;18.73;9.90;;;;;;;8.75;100.00;101186.91;5054185;28;20415;-75
2022/10/23 04:44:12;;;;;;;21.00;11.13;;;;;;;8.77;100.00;101191.13;5053917;28;20033;-75
2022/10/23 04:46:37;;;;;;;19.35;10.20;;;;;;;8.78;100.00;101184.84;5054104;28;20037;-75
2022/10/23 04:49:03;;;;;;;18.38;9.63;;;;;;;8.78;100.00;101190.16;5053686;28;20424;-75
2022/10/23 04:51:28;;;;;;;23.10;10.27;;;;;;;8.80;100.00;101193.53;5053761;28;20040;-75
2022/10/23 04:53:53;;;;;;;19.42;10.63;;;;;;;8.84;100.00;101191.50;5053971;28;20111;-75
2022/10/23 04:56:19;;;;;;;18.42;10.43;;;;;;;8.86;100.00;101194.03;5053813;28;20511;-75
2022/10/23 04:58:44;;;;;;;17.83;9.20;;;;;;;8.87;100.00;101195.72;5053794;28;20485;-75
2022/10/23 05:01:10;;;;;;;18.52;9.48;;;;;;;8.87;100.00;101193.91;5053481;28;20071;-75
2022/10/23 05:03:36;;;;;;;16.98;9.95;;;;;;;8.90;100.00;101187.53;5053819;28;20481;-75
2022/10/23 05:06:02;;;;;;;17.92;9.63;;;;;;;8.93;100.00;101188.13;5053621;28;20422;-76
2022/10/23 05:08:28;;;;;;;14.90;9.65;;;;;;;8.98;100.00;101180.63;5053083;28;20033;-75
2022/10/23 05:10:53;;;;;;;17.30;9.85;;;;;;;9.04;100.00;101186.44;5053695;28;20044;-75
2022/10/23 05:13:19;;;;;;;20.42;10.30;;;;;;;9.11;100.00;101171.72;5053253;28;20045;-75
2022/10/23 05:15:50;;;;;;;16.60;9.88;;;;;;;9.15;100.00;101170.50;5053742;28;20449;-75
2022/10/23 05:18:20;;;;;;;18.33;9.73;;;;;;;9.20;100.00;101162.19;5053161;28;20033;-75
2022/10/23 05:20:47;;;;;;;16.33;9.23;;;;;;;9.25;100.00;101170.63;5053642;28;20518;-75
2022/10/23 05:23:17;;;;;;;16.35;9.23;;;;;;;9.29;100.00;101172.06;5052506;28;20051;-75
2022/10/23 05:25:42;;;;;;;15.10;8.90;;;;;;;9.32;100.00;101166.53;5053535;28;20032;-75
2022/10/23 05:28:08;;;;;;;14.40;8.38;;;;;;;9.34;100.00;101176.06;5052081;28;20052;-75
2022/10/23 05:30:33;;;;;;;14.98;8.13;;;;;;;9.40;100.00;101173.88;5053156;28;20204;-75
2022/10/23 05:33:01;;;;;;;13.98;7.80;;;;;;;9.42;100.00;101170.13;5051899;28;20520;-75
2022/10/23 05:35:28;;;;;;;20.23;9.15;;;;;;;9.53;100.00;101177.22;5052857;28;20025;-74
2022/10/23 05:37:56;;;;;;;26.90;8.88;;;;;;;9.68;100.00;101175.13;5053288;28;20033;-75
2022/10/23 05:40:21;;;;;;;28.00;11.25;;;;;;;9.74;100.00;101174.63;5052243;28;20413;-75
2022/10/23 05:42:47;;;;;;;20.98;9.30;;;;;;;9.80;100.00;101171.47;5052980;28;20039;-75
2022/10/23 05:45:12;;;;;;;20.55;8.68;;;;;;;9.82;100.00;101164.22;5052379;28;20033;-75
2022/10/23 05:47:37;;;;;;;15.90;8.63;;;;;;;9.81;100.00;101164.34;5051630;28;20033;-75
2022/10/23 05:50:03;;;;;;;18.88;8.32;;;;;;;9.79;100.00;101156.50;5052876;28;20051;-75
2022/10/23 05:52:28;;;;;;;21.17;8.18;;;;;;;9.79;100.00;101159.16;5052634;28;20055;-75
2022/10/23 05:54:54;;;;;;;22.63;9.38;;;;;;;9.80;100.00;101160.00;5052945;28;20461;-75
2022/10/23 05:57:19;;;;;;;18.60;8.15;;;;;;;9.79;100.00;101156.50;5052327;28;20120;-75
2022/10/23 05:59:44;;;;;;;19.00;8.77;;;;;;;9.82;100.00;101148.28;5052652;28;20072;-75
2022/10/23 06:02:10;;;;;;;19.90;8.60;;;;;;;9.82;100.00;101144.75;5052428;28;20040;-73
2022/10/23 06:04:35;;;;;;;20.65;9.30;;;;;;;9.82;100.00;101139.44;5052869;28;20029;-74
2022/10/23 06:07:02;;;;;;;17.10;8.20;;;;;;;9.79;100.00;101143.22;5052623;28;20040;-76
2022/10/23 06:09:27;;;;;;;15.48;8.35;;;;;;;9.79;100.00;101151.19;5052085;28;20465;-74
2022/10/23 06:11:52;;;;;;;19.52;8.85;;;;;;;9.81;100.00;101138.63;5052200;28;20041;-74
2022/10/23 06:14:18;;;;;;;15.80;8.70;;;;;;;9.82;100.00;101135.00;5052349;28;20055;-74
2022/10/23 06:16:43;;;;;;;15.18;8.13;;;;;;;9.83;100.00;101134.00;5052408;28;20454;-74
2022/10/23 06:19:10;;;;;;;20.50;8.68;;;;;;;9.81;100.00;101135.97;5051828;28;20040;-75
2022/10/23 06:21:37;;;;;;;21.58;9.00;;;;;;;9.81;100.00;101125.31;5051350;28;20036;-74
2022/10/23 06:24:04;;;;;;;17.33;8.23;;;;;;;9.81;100.00;101114.69;5052148;28;20052;-75
2022/10/23 06:26:29;;;;;;;16.95;8.40;;;;;;;9.81;100.00;101114.69;5051816;28;20045;-75
2022/10/23 06:28:55;;;;;;;18.20;8.38;;;;;;;9.81;100.00;101116.53;5052394;28;20044;-75
2022/10/23 06:31:25;;;;;;;18.67;8.02;;;;;;;9.82;100.00;101112.88;5051872;28;20048;-75
2022/10/23 06:33:51;;;;;;;12.85;7.85;;;;;;;9.82;100.00;101105.75;5052249;28;20037;-75
2022/10/23 06:36:16;;;;;;;18.23;9.00;;;;;;;9.84;100.00;101106.47;5051881;28;20029;-75
2022/10/23 06:38:42;;;;;;;16.10;8.20;;;;;;;9.85;100.00;101101.97;5052048;28;20029;-75
2022/10/23 06:41:20;;;;;;;14.07;7.80;;;;;;;9.86;100.00;101101.03;5052079;28;20033;-75
2022/10/23 06:43:47;;;;;;;16.35;8.35;;;;;;;9.87;100.00;101100.06;5052373;28;20043;-75
2022/10/23 06:46:13;;;;;;;16.60;8.10;;;;;;;9.90;100.00;101105.13;5051742;28;20035;-75
2022/10/23 06:48:40;;;;;;;17.10;8.00;;;;;;;9.89;100.00;101098.94;5052166;28;20033;-75
2022/10/23 06:51:08;;;;;;;16.20;8.32;;;;;;;9.93;100.00;101098.69;5051904;28;20033;-75
2022/10/23 06:53:34;;;;;;;16.05;8.50;;;;;;;9.97;100.00;101089.47;5051637;28;20436;-75
2022/10/23 06:56:01;;;;;;;20.00;9.05;;;;;;;9.97;100.00;101085.03;5052050;28;20032;-75
2022/10/23 06:58:27;;;;;;;16.35;8.23;;;;;;;10.01;100.00;101085.59;5050416;28;20037;-75
2022/10/23 07:00:53;;;;;;;18.83;8.43;;;;;;;10.05;100.00;101089.69;5051845;28;20108;-75
2022/10/23 07:03:18;;;;;;;22.13;9.30;;;;;;;10.09;100.00;101085.81;5051655;28;20450;-75
2022/10/23 07:05:44;;;;;;;19.55;9.18;;;;;;;10.15;100.00;101089.75;5051649;28;20033;-74
2022/10/23 07:08:10;;;;;;;22.55;8.93;;;;;;;10.16;100.00;101092.28;5051857;28;20044;-74
2022/10/23 07:10:35;;;;;;;18.33;8.82;;;;;;;10.19;100.00;101089.34;5051089;28;20037;-75
2022/10/23 07:13:02;;;;;;;17.80;9.13;;;;;;;10.23;100.00;101074.00;5051839;28;20082;-75
2022/10/23 07:15:28;;;;;;;15.70;9.23;;;;;;;10.27;100.00;101078.09;5051531;28;20049;-75
2022/10/23 07:17:54;;;;;;;14.63;8.00;;;;;;;10.29;100.00;101068.16;5051727;28;20040;-74
2022/10/23 07:20:19;;;;;;;17.77;9.25;;;;;;;10.34;100.00;101063.28;5051518;28;20029;-74
2022/10/23 07:22:55;;;;;;;20.38;9.07;;;;;;;10.39;100.00;101066.41;5051742;28;20033;-75
2022/10/23 07:25:22;;;;;;;16.88;8.82;;;;;;;10.45;100.00;101070.38;5051170;28;20493;-75
2022/10/23 07:27:47;;;;;;;16.13;8.93;;;;;;;10.52;100.00;101076.81;5051782;28;20033;-74
2022/10/23 07:30:13;;;;;;;15.60;8.82;;;;;;;10.58;100.00;101078.13;5051312;28;20171;-74
2022/10/23 07:32:38;;;;;;;19.42;8.77;;;;;;;10.64;100.00;101076.75;5054185;28;20036;-74
2022/10/23 07:35:05;;;;;;;15.40;8.20;;;;;;;10.67;100.00;101071.97;5055872;28;20067;-74
2022/10/23 07:37:30;;;;;;;17.13;8.63;;;;;;;10.71;100.00;101068.09;5055358;28;20033;-75
2022/10/23 07:39:56;;;;;;;17.67;8.63;;;;;;;10.73;100.00;101070.59;5055597;28;20457;-75
2022/10/23 07:42:21;;;;;;;15.40;7.93;;;;;;;10.79;100.00;101067.41;5054992;28;20025;-75
2022/10/23 07:44:46;;;;;;;18.20;8.30;;;;;;;10.81;100.00;101057.50;5055392;28;20061;-74
2022/10/23 07:47:12;;;;;;;18.85;8.40;;;;;;;10.85;100.00;101063.38;5055550;28;20055;-74
2022/10/23 07:49:37;;;;;;;16.25;7.35;;;;;;;10.90;100.00;101058.50;5054550;28;20159;-74
2022/10/23 07:52:05;;;;;;;17.08;7.78;;;;;;;10.96;100.00;101057.09;5055149;28;20040;-74
2022/10/23 07:54:31;;;;;;;15.05;7.45;;;;;;;10.99;100.00;101051.47;5054867;28;20497;-75
2022/10/23 07:56:58;;;;;;;12.80;7.05;;;;;;;11.05;100.00;101048.31;5055172;28;20060;-75
2022/10/23 07:59:23;;;;;;;11.32;6.82;;;;;;;11.06;100.00;101040.19;5054338;28;20029;-76
2022/10/23 08:01:49;;;;;;;15.05;7.40;;;;;;;11.09;100.00;101044.38;5054884;28;20037;-75
2022/10/23 08:04:14;;;;;;;16.88;7.25;;;;;;;11.13;100.00;101039.63;5054976;28;20044;-75
2022/10/23 08:06:39;;;;;;;20.33;7.53;;;;;;;11.17;100.00;101046.38;5054106;28;20538;-75
2022/10/23 08:09:05;;;;;;;14.98;7.18;;;;;;;11.20;100.00;101044.25;5053581;28;20037;-75
2022/10/23 08:11:34;;;;;;;15.35;7.45;;;;;;;11.24;100.00;101039.47;5054505;28;20041;-75
2022/10/23 08:14:03;;;;;;;16.20;7.10;;;;;;;11.29;100.00;101047.91;5053213;28;20032;-75
2022/10/23 08:16:29;;;;;;;11.23;7.07;;;;;;;11.32;100.00;101041.47;5054401;28;20033;-75
2022/10/23 08:18:55;;;;;;;16.80;7.47;;;;;;;11.34;100.00;101040.34;5054917;28;20037;-76
2022/10/23 08:21:20;;;;;;;14.30;6.70;;;;;;;11.39;100.00;101034.59;5054950;28;20158;-76
2022/10/23 08:23:46;;;;;;;12.80;6.72;;;;;;;11.42;100.00;101028.97;5053782;28;20136;-76
2022/10/23 08:26:11;;;;;;;16.17;6.88;;;;;;;11.46;100.00;101031.25;5054696;28;20115;-76
2022/10/23 08:28:37;;;;;;;11.50;5.95;;;;;;;11.47;100.00;101022.25;5054208;28;20029;-76
2022/10/23 08:31:16;;;;;;;12.40;6.57;;;;;;;11.51;100.00;101019.31;5054798;28;20037;-78
2022/10/23 08:33:41;;;;;;;12.55;6.50;;;;;;;11.52;100.00;101018.34;5054043;28;20029;-77
2022/10/23 08:36:19;;;;;;;10.63;6.10;;;;;;;11.56;100.00;101009.09;5054353;28;20025;-75
2022/10/23 08:38:45;;;;;;;10.23;5.85;;;;;;;11.57;100.00;101006.28;5053953;28;20063;-76
2022/10/23 08:41:53;;;;;;;13.98;6.90;;;;;;;11.60;100.00;101002.50;5054459;28;20029;-76
2022/10/23 08:44:22;;;;;;;18.30;6.55;;;;;;;11.65;100.00;100998.41;5040937;28;20037;-76
2022/10/23 08:46:54;;;;;;;8.63;5.75;;;;;;;11.69;100.00;101000.78;5053799;28;20048;-75
2022/10/23 08:49:29;;;;;;;10.90;5.65;;;;;;;11.73;100.00;100994.19;5054085;28;20039;-75
2022/10/23 08:51:57;;;;;;;10.80;6.15;;;;;;;11.75;100.00;100993.06;5054308;28;20037;-76
2022/10/23 08:54:32;;;;;;;15.25;5.90;;;;;;;11.78;100.00;100991.94;5054068;28;20028;-76
2022/10/23 08:57:09;;;;;;;14.23;6.20;;;;;;;11.84;100.00;100996.69;5053988;28;20087;-75
2022/10/23 08:59:41;;;;;;;10.73;6.05;;;;;;;11.92;100.00;100993.31;5053511;28;20044;-76
2022/10/23 09:02:06;;;;;;;9.25;5.55;;;;;;;11.99;100.00;100987.28;5053775;28;20025;-76
2022/10/23 09:04:31;;;;;;;8.63;5.40;;;;;;;12.10;100.00;100991.59;5053329;28;20032;-75
2022/10/23 09:07:16;;;;;;;8.85;5.25;;;;;;;12.19;100.00;100986.38;5053783;28;20544;-76
2022/10/23 09:09:44;;;;;;;7.55;5.03;;;;;;;12.31;100.00;100974.53;5053148;28;20359;-76
2022/10/23 09:12:16;;;;;;;11.38;5.00;;;;;;;12.42;100.00;100976.16;5053791;28;20033;-76
2022/10/23 09:14:59;;;;;;;7.65;4.60;;;;;;;12.52;100.00;100976.97;5053295;28;20033;-76
2022/10/23 09:17:31;;;;;;;12.23;5.93;;;;;;;12.58;100.00;100976.34;5053776;28;20033;-77
2022/10/23 09:20:22;;;;;;;8.85;5.03;;;;;;;12.61;100.00;100972.56;5052526;28;20354;-77
2022/10/23 09:22:53;;;;;;;7.45;4.57;;;;;;;12.59;100.00;100972.72;5053360;28;20044;-77
2022/10/23 09:25:22;;;;;;;10.05;4.57;;;;;;;12.69;100.00;100960.16;5053719;28;20045;-77
2022/10/23 09:27:51;;;;;;;7.63;4.13;;;;;;;12.76;100.00;100954.22;5051634;28;20052;-77
2022/10/23 09:30:29;;;;;;;7.78;4.68;;;;;;;12.80;100.00;100943.06;5052958;28;20484;-77
2022/10/23 09:32:54;;;;;;;8.60;4.40;;;;;;;12.85;100.00;100931.94;5052824;28;20465;-77
2022/10/23 09:35:22;;;;;;;7.60;4.53;;;;;;;12.94;100.00;100927.53;5053116;28;20055;-77
2022/10/23 09:37:51;;;;;;;9.43;4.38;;;;;;;13.04;100.00;100923.78;5052875;28;20033;-76
2022/10/23 09:40:17;;;;;;;7.13;4.18;;;;;;;13.06;100.00;100931.63;5053194;28;20041;-78
2022/10/23 09:42:56;;;;;;;9.85;4.30;;;;;;;13.06;100.00;100923.63;5052425;28;20484;-74
2022/10/23 09:45:25;;;;;;;9.20;4.10;;;;;;;13.05;100.00;100919.28;5052961;28;20025;-75
2022/10/23 09:47:50;;;;;;;11.18;4.25;;;;;;;13.01;100.00;100921.41;5052408;28;20033;-74
2022/10/23 09:50:19;;;;;;;6.50;4.28;;;;;;;13.00;100.00;100918.88;5052929;28;20033;-76
2022/10/23 09:52:48;;;;;;;5.15;4.05;;;;;;;12.97;100.00;100917.38;5052205;28;20428;-78
2022/10/23 09:55:24;;;;;;;6.70;4.35;;;;;;;12.93;100.00;100910.66;5052580;28;20139;-78
2022/10/23 09:57:52;;;;;;;7.15;4.30;;;;;;;12.87;100.00;100909.44;5052521;28;20029;-75
2022/10/23 10:00:26;;;;;;;7.57;3.65;;;;;;;12.80;100.00;100904.88;5052693;28;20021;-77
2022/10/23 10:03:04;;;;;;;9.50;4.75;;;;;;;12.77;100.00;100902.50;5052623;28;20033;-76
2022/10/23 10:05:32;;;;;;;10.68;4.05;;;;;;;12.76;100.00;100903.47;5052764;28;20068;-78
2022/10/23 10:08:19;;;;;;;7.57;4.25;;;;;;;12.81;100.00;100901.22;5052076;28;20029;-77
2022/10/23 10:11:20;;;;;;;10.23;4.50;;;;;;;12.84;100.00;100899.06;5052262;28;20037;-78
2022/10/23 10:14:22;;;;;;;8.70;4.45;;;;;;;12.90;100.00;100886.06;5052206;28;20029;-77
2022/10/23 10:17:03;;;;;;;11.25;3.80;;;;;;;13.01;100.00;100893.88;5052033;28;20017;-74
2022/10/23 10:19:31;;;;;;;10.30;3.97;;;;;;;13.11;100.00;100886.63;5052522;28;20461;-74
2022/10/23 10:22:03;;;;;;;9.80;4.07;;;;;;;13.19;100.00;100875.16;5052087;28;20057;-76
2022/10/23 10:24:37;;;;;;;7.72;4.10;;;;;;;13.27;100.00;100877.91;5052368;28;20132;-78
2022/10/23 10:27:33;;;;;;;6.38;3.50;;;;;;;13.38;100.00;100872.31;5052811;28;20060;-77
2022/10/23 10:30:04;;;;;;;8.27;3.70;;;;;;;13.54;100.00;100862.72;5052084;28;20381;-77
2022/10/23 10:32:39;;;;;;;10.20;3.72;;;;;;;13.61;100.00;100846.91;5052019;28;20432;-76
2022/10/23 10:35:37;;;;;;;6.78;3.60;;;;;;;13.71;100.00;100842.28;5052063;28;20133;-76
2022/10/23 10:38:37;;;;;;;5.05;3.30;;;;;;;13.72;100.00;100835.94;5049004;28;20033;-77
2022/10/23 10:41:28;;;;;;;11.98;4.07;;;;;;;13.80;100.00;100827.09;5051662;28;20033;-77
2022/10/23 10:44:15;;;;;;;5.32;3.45;;;;;;;13.86;100.00;100818.44;5051868;28;20480;-78
2022/10/23 10:46:49;;;;;;;9.85;3.75;;;;;;;13.96;100.00;100802.25;5051351;28;20158;-76
2022/10/23 10:50:01;;;;;;;9.05;3.53;;;;;;;13.98;100.00;100793.06;5052187;28;20036;-77
2022/10/23 10:52:37;;;;;;;6.63;3.55;;;;;;;14.03;100.00;100784.56;5051543;28;20452;-78
2022/10/23 10:55:34;;;;;;;11.30;3.70;;;;;;;14.06;100.00;100763.69;5051646;28;20082;-79
2022/10/23 10:58:24;;;;;;;12.45;3.60;;;;;;;14.16;100.00;100750.13;5051665;28;20036;-77
2022/10/23 11:00:59;;;;;;;6.18;3.45;;;;;;;14.27;100.00;100752.50;5051669;28;20032;-76
2022/10/23 11:03:51;;;;;;;9.15;3.53;;;;;;;14.36;100.00;100739.13;5052139;28;20043;-75
2022/10/23 11:06:19;;;;;;;;;;;;;;;14.45;100.00;100740.78;5052878;28;20021;-75
2022/10/23 11:08:44;;;;;;;8.93;3.45;;;;;;;14.60;100.00;100731.09;5055413;28;19921;-76
2022/10/23 11:11:17;;;;;;;6.05;3.55;;;;;;;14.71;100.00;100740.66;5056371;28;20075;-76
2022/10/23 11:13:44;;;;;;;6.32;3.60;;;;;;;14.85;100.00;100746.34;5055875;28;20030;-77
2022/10/23 11:16:18;;;;;;;8.60;4.03;;;;;;;14.90;100.00;100744.84;5056396;28;20040;-75
2022/10/23 11:18:51;;;;;;;9.18;3.60;;;;;;;15.01;100.00;100734.78;5055744;28;20071;-76
2022/10/23 11:21:33;;;;;;;6.18;3.42;;;;;;;15.14;100.00;100730.53;5055711;28;20025;-75
2022/10/23 11:24:16;;;;;;;;;;;;;;;15.34;100.00;100706.84;5055666;28;20056;-75
2022/10/23 11:26:57;;;;;;;7.55;3.42;;;;;;;15.44;100.00;100705.81;5055938;28;19920;-76
2022/10/23 11:29:42;;;;;;;8.48;3.60;;;;;;;15.55;100.00;100701.91;5055800;28;20044;-75